createdAt,value
2024-05-09T00:00:48.685Z,82.54
2024-05-09T00:05:51.815Z,77.34
2024-05-09T00:10:54.834Z,82.79
2024-05-09T00:15:57.909Z,82.98
2024-05-09T00:21:01.129Z,81.80
2024-05-09T00:26:04.191Z,84.36
2024-05-09T00:31:07.083Z,80.23
2024-05-09T00:36:10.101Z,82.20
2024-05-09T00:41:15.152Z,82.13
2024-05-09T00:46:19.677Z,79.52
2024-05-09T00:51:22.871Z,78.19
2024-05-09T00:56:26.692Z,83.08
2024-05-09T01:01:30.517Z,83.22
2024-05-09T01:06:33.452Z,82.24
2024-05-09T01:11:41.019Z,82.01
2024-05-09T01:16:44.185Z,82.34
2024-05-09T01:21:47.122Z,78.47
2024-05-09T01:26:50.227Z,80.72
2024-05-09T01:31:53.296Z,82.80
2024-05-09T01:36:56.269Z,81.12
2024-05-09T01:41:59.155Z,78.90
2024-05-09T01:47:02.179Z,78.64
2024-05-09T01:52:05.455Z,82.98
2024-05-09T01:57:08.562Z,79.07
2024-05-09T02:02:12.835Z,81.03
2024-05-09T02:07:16.245Z,81.35
2024-05-09T02:12:19.289Z,83.20
2024-05-09T02:17:22.875Z,82.74
2024-05-09T02:22:26.202Z,82.16
2024-05-09T02:27:29.413Z,77.92
2024-05-09T02:32:32.702Z,78.89
2024-05-09T02:37:35.908Z,82.90
2024-05-09T02:42:39.015Z,83.88
2024-05-09T02:47:42.210Z,83.12
2024-05-09T02:52:45.497Z,82.63
2024-05-09T02:57:48.710Z,82.97
2024-05-09T03:02:51.965Z,83.11
2024-05-09T03:07:55.219Z,84.47
2024-05-09T03:12:58.154Z,82.28
2024-05-09T03:18:01.815Z,83.01
2024-05-09T03:23:08.079Z,82.63
2024-05-09T03:28:12.489Z,82.95
2024-05-09T03:33:20.194Z,84.04
2024-05-09T03:38:23.810Z,84.05
2024-05-09T03:43:26.767Z,84.23
2024-05-09T03:48:29.826Z,82.22
2024-05-09T03:53:32.952Z,83.51
2024-05-09T03:58:37.773Z,82.65
2024-05-09T04:03:41.039Z,82.56
2024-05-09T04:08:44.335Z,82.07
2024-05-09T04:13:47.559Z,83.38
2024-05-09T04:18:50.811Z,82.08
2024-05-09T04:23:54.139Z,81.92
2024-05-09T04:28:57.160Z,84.54
2024-05-09T04:34:00.282Z,84.09
2024-05-09T04:39:03.469Z,81.50
2024-05-09T04:44:06.653Z,78.74
2024-05-09T04:49:10.007Z,68.97
2024-05-09T04:54:25.728Z,62.85
2024-05-09T04:59:33.691Z,62.77
2024-05-09T05:04:36.907Z,59.23
2024-05-09T05:09:39.837Z,58.78
2024-05-09T05:14:42.724Z,56.70
2024-05-09T05:19:48.059Z,55.99
2024-05-09T05:24:51.031Z,61.87
2024-05-09T05:29:53.905Z,54.75
2024-05-09T05:34:57.028Z,62.79
2024-05-09T05:39:59.937Z,68.17
2024-05-09T05:45:05.118Z,60.11
2024-05-09T05:50:20.498Z,62.10
2024-05-09T05:55:30.373Z,67.10
2024-05-09T06:00:38.475Z,67.93
2024-05-09T06:05:44.155Z,65.30
2024-05-09T06:10:47.798Z,66.43
2024-05-09T06:15:51.061Z,65.44
2024-05-09T06:20:54.012Z,66.94
2024-05-09T06:25:57.174Z,64.84
2024-05-09T06:31:03.494Z,67.32
2024-05-09T06:36:07.310Z,69.99
2024-05-09T06:41:10.492Z,67.84
2024-05-09T06:46:13.447Z,67.80
2024-05-09T06:51:16.755Z,69.65
2024-05-09T06:56:19.777Z,66.83
2024-05-09T07:01:23.054Z,69.65
2024-05-09T07:06:26.296Z,67.53
2024-05-09T07:11:31.662Z,69.81
2024-05-09T07:16:34.894Z,69.28
2024-05-09T07:21:37.778Z,67.59
2024-05-09T07:26:40.833Z,66.49
2024-05-09T07:31:44.050Z,65.48
2024-05-09T07:36:47.364Z,68.86
2024-05-09T07:41:50.514Z,69.01
2024-05-09T07:48:13.724Z,70.34
2024-05-09T07:53:29.938Z,66.91
2024-05-09T07:57:39.763Z,67.54
2024-05-09T08:02:42.960Z,66.20
2024-05-09T08:07:47.322Z,66.97
2024-05-09T08:12:50.248Z,68.17
2024-05-09T08:17:53.251Z,67.66
2024-05-09T08:22:56.447Z,65.80
2024-05-09T08:27:59.644Z,64.83
2024-05-09T08:33:06.097Z,65.43
2024-05-09T08:38:10.843Z,65.08
2024-05-09T08:43:15.569Z,63.05
2024-05-09T08:48:20.859Z,62.86
2024-05-09T08:53:23.952Z,64.09
2024-05-09T08:58:28.087Z,64.97
2024-05-09T09:03:34.547Z,63.31
2024-05-09T09:08:40.392Z,65.14
2024-05-09T09:13:43.382Z,63.70
2024-05-09T09:18:47.083Z,65.36
2024-05-09T09:23:50.143Z,64.15
2024-05-09T09:28:53.173Z,63.98
2024-05-09T09:33:56.317Z,62.56
2024-05-09T09:38:59.699Z,63.74
2024-05-09T09:44:04.986Z,64.33
2024-05-09T09:49:08.821Z,62.43
2024-05-09T09:54:13.252Z,62.70
2024-05-09T09:59:17.471Z,62.40
2024-05-09T10:04:20.836Z,62.67
2024-05-09T10:09:24.526Z,62.36
2024-05-09T10:14:30.943Z,62.89
2024-05-09T10:19:35.317Z,61.60
2024-05-09T10:25:08.442Z,62.24
2024-05-09T10:30:14.819Z,61.69
2024-05-09T10:35:26.685Z,61.34
2024-05-09T10:40:31.735Z,62.44
2024-05-09T10:45:36.564Z,61.50
2024-05-09T10:50:43.960Z,61.35
2024-05-09T10:55:58.055Z,61.04
2024-05-09T11:01:05.428Z,60.52
2024-05-09T11:06:11.591Z,62.76
2024-05-09T11:11:15.104Z,60.44
2024-05-09T11:16:21.140Z,59.75
2024-05-09T11:21:25.004Z,61.50
2024-05-09T11:26:29.608Z,60.66
2024-05-09T11:31:32.949Z,61.28
2024-05-09T11:36:36.275Z,59.70
2024-05-09T11:41:39.758Z,60.30
2024-05-09T11:46:44.611Z,60.58
2024-05-09T11:51:47.678Z,59.45
2024-05-09T11:56:51.762Z,59.76
2024-05-09T12:01:54.824Z,59.42
2024-05-09T12:06:57.889Z,59.03
2024-05-09T12:12:00.865Z,58.17
2024-05-09T12:17:05.844Z,58.04
2024-05-09T12:22:08.912Z,58.51
2024-05-09T12:27:11.939Z,57.13
2024-05-09T12:32:15.059Z,58.62
2024-05-09T12:37:19.188Z,58.37
2024-05-09T12:42:27.346Z,57.68
2024-05-09T12:47:31.629Z,56.14
2024-05-09T12:52:34.651Z,57.94
2024-05-09T12:57:37.752Z,55.05
2024-05-09T13:02:40.852Z,57.16
2024-05-09T13:07:44.013Z,55.76
2024-05-09T13:12:46.935Z,55.88
2024-05-09T13:17:49.942Z,55.56
2024-05-09T13:22:53.168Z,56.56
2024-05-09T13:27:57.386Z,56.65
2024-05-09T13:33:00.522Z,55.53
2024-05-09T13:38:04.884Z,55.30
2024-05-09T13:43:08.235Z,54.84
2024-05-09T13:48:11.482Z,55.31
2024-05-09T13:53:14.542Z,54.35
2024-05-09T13:58:18.014Z,54.91
2024-05-09T14:03:21.531Z,54.97
2024-05-09T14:08:24.700Z,55.95
2024-05-09T14:13:27.836Z,55.35
2024-05-09T14:18:31.134Z,56.26
2024-05-09T14:23:34.198Z,55.63
2024-05-09T14:28:37.168Z,53.13
2024-05-09T14:33:40.189Z,53.58
2024-05-09T14:38:43.485Z,53.84
2024-05-09T14:43:46.411Z,54.54
2024-05-09T14:48:50.028Z,55.02
2024-05-09T14:53:53.524Z,53.53
2024-05-09T14:58:57.256Z,52.78
2024-05-09T15:04:00.301Z,53.60
2024-05-09T15:09:06.539Z,53.65
2024-05-09T15:14:09.467Z,53.28
2024-05-09T15:19:12.885Z,52.83
2024-05-09T15:24:16.193Z,51.04
2024-05-09T15:29:19.248Z,51.15
2024-05-09T15:34:22.454Z,52.20
2024-05-09T15:39:25.739Z,52.17
2024-05-09T15:44:29.032Z,51.89
2024-05-09T15:49:32.082Z,50.93
2024-05-09T15:54:35.198Z,51.56
2024-05-09T15:59:38.689Z,51.06
2024-05-09T16:04:41.634Z,49.76
2024-05-09T16:09:44.836Z,51.27
2024-05-09T16:14:47.724Z,52.55
2024-05-09T16:19:50.656Z,50.32
2024-05-09T16:24:53.802Z,51.10
2024-05-09T16:30:03.966Z,50.96
2024-05-09T16:35:08.422Z,51.00
2024-05-09T16:40:22.029Z,51.02
2024-05-09T16:45:33.632Z,51.76
2024-05-09T16:50:37.354Z,51.08
2024-05-09T16:55:40.386Z,50.95
2024-05-09T17:00:44.297Z,50.76
2024-05-09T17:05:48.436Z,51.05
2024-05-09T17:10:51.690Z,52.64
2024-05-09T17:15:54.826Z,51.82
2024-05-09T17:20:57.730Z,52.06
2024-05-09T17:26:00.984Z,51.87
2024-05-09T17:31:03.968Z,52.16
2024-05-09T17:36:07.358Z,52.45
2024-05-09T17:41:10.402Z,53.20
2024-05-09T17:46:13.652Z,52.91
2024-05-09T17:51:16.614Z,53.14
2024-05-09T17:56:19.610Z,53.15
2024-05-09T18:01:23.824Z,52.76
2024-05-09T18:06:26.999Z,54.47
2024-05-09T18:11:30.265Z,54.19
2024-05-09T18:16:33.584Z,54.37
2024-05-09T18:21:36.692Z,54.00
2024-05-09T18:26:39.841Z,54.50
2024-05-09T18:31:42.961Z,55.11
2024-05-09T18:36:46.660Z,56.42
2024-05-09T18:41:49.564Z,56.20
2024-05-09T18:46:52.524Z,58.75
2024-05-09T18:51:55.433Z,57.46
2024-05-09T18:56:58.398Z,58.88
2024-05-09T19:02:01.504Z,59.55
2024-05-09T19:07:04.608Z,59.99
2024-05-09T19:12:08.047Z,60.11
2024-05-09T19:17:11.230Z,60.77
2024-05-09T19:22:14.231Z,61.67
2024-05-09T19:27:17.253Z,63.59
2024-05-09T19:32:20.334Z,63.07
2024-05-09T19:37:23.666Z,63.65
2024-05-09T19:42:27.567Z,63.84
2024-05-09T19:47:30.626Z,63.67
2024-05-09T19:52:33.640Z,64.85
2024-05-09T19:57:36.615Z,65.67
2024-05-09T20:02:39.865Z,68.10
2024-05-09T20:07:43.280Z,68.28
2024-05-09T20:12:46.287Z,66.54
2024-05-09T20:17:49.421Z,70.17
2024-05-09T20:22:52.531Z,70.20
2024-05-09T20:27:55.515Z,70.36
2024-05-09T20:32:58.729Z,71.57
2024-05-09T20:38:03.080Z,72.35
2024-05-09T20:43:09.673Z,70.69
2024-05-09T20:48:13.322Z,71.80
2024-05-09T20:53:16.297Z,70.86
2024-05-09T20:58:19.284Z,72.78
2024-05-09T21:03:22.317Z,73.45
2024-05-09T21:08:27.016Z,73.78
2024-05-09T21:13:30.105Z,74.37
2024-05-09T21:18:33.351Z,73.28
2024-05-09T21:23:38.107Z,73.55
2024-05-09T21:28:41.076Z,73.63
2024-05-09T21:33:44.326Z,72.93
2024-05-09T21:38:47.345Z,75.30
2024-05-09T21:43:50.278Z,75.70
2024-05-09T21:48:53.733Z,74.48
2024-05-09T21:53:58.967Z,74.90
2024-05-09T21:59:01.894Z,74.66
2024-05-09T22:04:05.031Z,74.81
2024-05-09T22:09:08.016Z,76.90
2024-05-09T22:14:10.992Z,76.64
2024-05-09T22:19:14.167Z,77.23
2024-05-09T22:24:17.134Z,74.05
2024-05-09T22:29:20.059Z,73.28
2024-05-09T22:34:23.429Z,73.25
2024-05-09T22:39:26.675Z,77.12
2024-05-09T22:44:29.902Z,76.18
2024-05-09T22:49:32.850Z,77.27
2024-05-09T22:54:36.039Z,74.70
2024-05-09T22:59:39.141Z,74.35
2024-05-09T23:04:42.106Z,80.04
2024-05-09T23:09:48.432Z,75.35
2024-05-09T23:14:51.641Z,77.39
2024-05-09T23:19:54.762Z,78.72
2024-05-09T23:24:57.999Z,79.35
2024-05-09T23:30:01.138Z,77.33
2024-05-09T23:35:04.240Z,75.67
2024-05-09T23:40:09.695Z,79.61
2024-05-09T23:45:13.032Z,77.59
2024-05-09T23:50:20.705Z,76.90
2024-05-09T23:55:31.314Z,76.46
